Time;durP1;ratioP1;P1;durP2;ratioP2;P2;SDS_P1;SDS_P2;PMS_P1;PMS_P2;Temp;Humidity;BMP_temperature;BMP_pressure;BME280_temperature;BME280_humidity;BME280_pressure;Samples;Min_cycle;Max_cycle;Signal;HPM_P1;HPM_P2
2022/06/20 00:04:01;;;;;;;6.28;2.03;;;;;;;16.86;100.00;97787.44;15281670;19;20011;-55
2022/06/20 00:09:10;;;;;;;8.75;2.38;;;;;;;16.89;100.00;97778.81;15281757;19;20308;-57
2022/06/20 00:14:17;;;;;;;7.50;2.17;;;;;;;16.86;100.00;97754.78;15273179;19;20014;-56
2022/06/20 00:19:22;;;;;;;7.85;2.20;;;;;;;16.84;100.00;97766.91;15275934;19;20007;-53
2022/06/20 00:24:30;;;;;;;5.70;2.00;;;;;;;16.82;100.00;97763.59;15278302;19;20019;-53
2022/06/20 00:29:35;;;;;;;6.75;2.20;;;;;;;16.78;100.00;97757.75;15281256;19;20019;-56
2022/06/20 00:34:40;;;;;;;8.23;2.20;;;;;;;16.76;100.00;97754.41;15278959;19;20295;-53
2022/06/20 00:39:48;;;;;;;7.07;2.25;;;;;;;16.71;100.00;97746.09;15279099;19;20018;-51
2022/06/20 00:45:04;;;;;;;7.40;2.20;;;;;;;16.70;100.00;97767.00;15269960;19;20038;-53
2022/06/20 00:50:15;;;;;;;7.60;2.28;;;;;;;16.60;100.00;97777.50;15277975;19;20016;-50
2022/06/20 00:55:27;;;;;;;7.45;2.40;;;;;;;16.20;100.00;97821.16;15275737;19;20027;-55
2022/06/20 01:00:40;;;;;;;8.23;2.35;;;;;;;15.93;100.00;97838.34;15277963;19;20010;-52
2022/06/20 01:05:50;;;;;;;8.30;2.40;;;;;;;15.90;100.00;97822.44;15276792;19;20023;-50
2022/06/20 01:11:04;;;;;;;6.82;2.35;;;;;;;15.98;100.00;97800.50;15277234;19;20018;-52
2022/06/20 01:16:23;;;;;;;8.25;2.30;;;;;;;16.01;100.00;97782.91;15268749;19;20006;-56
2022/06/20 01:21:34;;;;;;;9.82;2.60;;;;;;;16.07;100.00;97806.53;15273039;19;20479;-56
2022/06/20 01:26:53;;;;;;;8.10;2.55;;;;;;;16.07;100.00;97811.97;15273011;19;20038;-55
2022/06/20 01:32:02;;;;;;;9.52;2.50;;;;;;;16.09;100.00;97806.31;15278470;19;20040;-49
2022/06/20 01:37:26;;;;;;;8.68;2.40;;;;;;;15.99;100.00;97799.44;15274867;19;20019;-53
2022/06/20 01:42:32;;;;;;;7.53;2.30;;;;;;;16.01;100.00;97797.34;15267922;19;20026;-50
2022/06/20 01:47:39;;;;;;;7.85;2.38;;;;;;;16.01;100.00;97800.06;15268772;19;20014;-51
2022/06/20 01:52:46;;;;;;;8.02;2.33;;;;;;;15.90;100.00;97810.72;15270903;19;20415;-61
2022/06/20 01:57:57;;;;;;;8.07;2.30;;;;;;;15.65;100.00;97822.19;15274922;19;20046;-55
2022/06/20 02:03:14;;;;;;;7.45;2.40;;;;;;;15.62;100.00;97823.47;15274365;19;20353;-51
2022/06/20 02:14:04;;;;;;;12.80;2.70;;;;;;;15.58;100.00;97819.50;15280118;19;19986;-48
2022/06/20 02:19:17;;;;;;;7.10;2.33;;;;;;;15.61;100.00;97824.50;15284333;19;20022;-58
2022/06/20 02:24:24;;;;;;;12.55;3.33;;;;;;;15.56;100.00;97840.59;15288632;19;20128;-53
2022/06/20 02:29:31;;;;;;;11.25;3.40;;;;;;;15.58;100.00;97838.50;15286871;19;20364;-50
2022/06/20 02:34:39;;;;;;;9.02;2.78;;;;;;;15.64;100.00;97834.94;15286462;19;20037;-52
2022/06/20 02:39:46;;;;;;;9.35;2.67;;;;;;;15.71;100.00;97834.97;15290600;19;20106;-53
2022/06/20 02:44:52;;;;;;;9.07;2.90;;;;;;;15.67;100.00;97818.25;15280944;19;20014;-54
2022/06/20 02:50:02;;;;;;;8.60;2.80;;;;;;;15.81;100.00;97816.34;15289174;19;20037;-52
2022/06/20 02:55:09;;;;;;;9.45;2.80;;;;;;;15.88;100.00;97786.50;15278850;19;20692;-51
2022/06/20 03:00:18;;;;;;;11.07;4.10;;;;;;;15.85;100.00;97768.75;15282127;19;20018;-55
2022/06/20 03:11:05;;;;;;;9.93;3.80;;;;;;;15.88;100.00;97770.22;15287958;19;20018;-58
2022/06/20 03:16:11;;;;;;;10.55;4.00;;;;;;;15.83;100.00;97757.22;15279598;19;20020;-52
2022/06/20 03:21:19;;;;;;;13.30;3.90;;;;;;;15.86;100.00;97750.56;15284117;19;20037;-60
2022/06/20 03:26:28;;;;;;;12.18;4.18;;;;;;;15.86;100.00;97745.97;15275154;19;20090;-49
2022/06/20 03:31:34;;;;;;;10.77;4.20;;;;;;;15.90;100.00;97729.25;15280886;19;20021;-49
2022/06/20 03:36:40;;;;;;;13.15;4.07;;;;;;;15.95;100.00;97727.56;15281098;19;20022;-52
2022/06/20 03:41:48;;;;;;;12.05;4.63;;;;;;;16.00;100.00;97714.19;15284653;19;20050;-50
2022/06/20 03:46:58;;;;;;;11.25;4.88;;;;;;;16.07;100.00;97710.59;15284396;19;20003;-52
2022/06/20 03:52:10;;;;;;;14.32;5.38;;;;;;;16.09;100.00;97711.22;15288314;19;20038;-58
2022/06/20 03:57:23;;;;;;;11.70;5.60;;;;;;;16.16;100.00;97726.44;15280524;19;20011;-53
2022/06/20 04:02:33;;;;;;;11.98;5.15;;;;;;;16.11;100.00;97715.38;15284955;19;20086;-54
2022/06/20 04:07:43;;;;;;;13.65;6.28;;;;;;;16.15;100.00;97723.97;15285192;19;20074;-56
2022/06/20 04:12:57;;;;;;;14.98;7.18;;;;;;;16.10;100.00;97711.03;15283235;19;20018;-56
2022/06/20 04:23:30;;;;;;;19.10;9.75;;;;;;;16.27;100.00;97675.19;15285850;19;20018;-52
2022/06/20 04:28:42;;;;;;;17.88;8.48;;;;;;;16.32;100.00;97687.09;15278508;19;20037;-56
2022/06/20 04:33:54;;;;;;;16.73;8.82;;;;;;;16.34;100.00;97749.41;15274577;19;20014;-57
2022/06/20 04:39:05;;;;;;;17.02;9.02;;;;;;;15.63;100.00;97979.91;15271309;19;20022;-56
2022/06/20 04:44:24;;;;;;;16.48;6.60;;;;;;;15.18;100.00;97926.09;15276130;19;20014;-55
2022/06/20 04:49:29;;;;;;;12.65;5.35;;;;;;;15.08;100.00;97961.75;15283480;19;20014;-57
2022/06/20 04:54:36;;;;;;;11.52;4.95;;;;;;;14.89;100.00;97947.06;15278748;19;20011;-60
2022/06/20 04:59:46;;;;;;;9.38;3.97;;;;;;;14.77;100.00;97906.09;15283088;19;20016;-53
2022/06/20 05:04:55;;;;;;;6.38;3.10;;;;;;;14.71;100.00;97885.22;15268190;19;20471;-50
2022/06/20 05:10:09;;;;;;;6.40;2.80;;;;;;;14.65;100.00;97902.25;15275077;19;20052;-53
2022/06/20 05:15:37;;;;;;;6.57;2.30;;;;;;;14.67;100.00;97899.34;15277105;19;20018;-56
2022/06/20 05:20:46;;;;;;;6.30;2.10;;;;;;;14.67;100.00;97894.78;15280613;19;20010;-57
2022/06/20 05:25:52;;;;;;;5.53;1.98;;;;;;;14.70;100.00;97915.28;15274251;19;20002;-52
2022/06/20 05:31:01;;;;;;;5.45;1.67;;;;;;;14.61;100.00;97911.84;15278461;19;20007;-49
2022/06/20 05:36:15;;;;;;;4.15;1.40;;;;;;;14.55;100.00;97888.22;15265773;19;20097;-52
2022/06/20 05:41:23;;;;;;;5.55;1.60;;;;;;;14.66;100.00;97876.81;15270578;19;20508;-52
2022/06/20 05:46:38;;;;;;;4.82;1.60;;;;;;;14.74;100.00;97856.88;15275092;19;20517;-52
2022/06/20 05:51:46;;;;;;;4.22;1.70;;;;;;;14.90;100.00;97837.53;15303394;19;20054;-49
2022/06/20 05:56:54;;;;;;;4.40;1.52;;;;;;;15.07;100.00;97818.16;15299784;19;20776;-49
2022/06/20 06:08:01;;;;;;;4.00;1.40;;;;;;;15.40;100.00;97810.09;15298312;19;20445;-55
2022/06/20 06:13:17;;;;;;;3.90;1.48;;;;;;;15.69;100.00;97826.19;15297762;19;20475;-57
2022/06/20 06:18:22;;;;;;;4.32;1.48;;;;;;;15.85;100.00;97785.06;15304340;19;20010;-58
2022/06/20 06:23:31;;;;;;;4.15;1.35;;;;;;;16.07;100.00;97764.94;15298831;19;20395;-59
2022/06/20 06:28:36;;;;;;;3.65;1.20;;;;;;;16.31;100.00;97764.22;15305351;19;20021;-57
2022/06/20 06:33:47;;;;;;;3.15;1.20;;;;;;;16.44;100.00;97776.09;15300348;19;20010;-50
2022/06/20 06:39:03;;;;;;;2.97;1.27;;;;;;;16.56;100.00;97754.53;15295001;19;20014;-53
2022/06/20 06:44:19;;;;;;;2.85;1.10;;;;;;;16.83;100.00;97755.22;15292329;19;20025;-54
2022/06/20 06:49:34;;;;;;;5.10;1.35;;;;;;;17.02;100.00;97763.50;15305399;19;20038;-57
2022/06/20 06:54:57;;;;;;;4.03;1.30;;;;;;;17.06;100.00;97778.34;15300849;19;20594;-54
2022/06/20 07:00:24;;;;;;;2.35;1.10;;;;;;;16.93;100.00;97814.59;15294382;19;20384;-53
2022/06/20 07:05:37;;;;;;;5.45;1.35;;;;;;;17.01;100.00;97761.81;15281260;19;20022;-58
2022/06/20 07:10:52;;;;;;;2.95;1.17;;;;;;;17.06;100.00;97786.50;15281722;19;20090;-53
2022/06/20 07:16:03;;;;;;;4.72;1.30;;;;;;;17.22;100.00;97764.22;15276315;19;20022;-56
2022/06/20 07:21:11;;;;;;;3.35;1.10;;;;;;;17.34;100.00;97752.63;15284122;19;20597;-54
2022/06/20 07:26:22;;;;;;;3.17;1.10;;;;;;;17.61;100.00;97765.97;15281732;19;20351;-56
2022/06/20 07:31:32;;;;;;;3.30;1.40;;;;;;;17.67;100.00;97768.66;15286497;19;20049;-53
2022/06/20 07:36:50;;;;;;;3.43;1.30;;;;;;;17.90;100.00;97760.91;15271858;19;20432;-58
2022/06/20 07:42:04;;;;;;;2.90;1.23;;;;;;;18.02;100.00;97780.94;15276111;19;20029;-55
2022/06/20 07:47:16;;;;;;;3.47;1.25;;;;;;;18.10;100.00;97772.47;15283520;19;20042;-58
2022/06/20 07:52:26;;;;;;;2.97;1.20;;;;;;;18.14;100.00;97781.88;15279956;19;20022;-55
2022/06/20 07:57:37;;;;;;;3.38;1.20;;;;;;;18.04;100.00;97806.09;15285521;19;20011;-54
2022/06/20 08:02:47;;;;;;;3.22;1.20;;;;;;;18.00;100.00;97802.13;15283571;19;20467;-57
2022/06/20 08:08:01;;;;;;;3.28;1.20;;;;;;;18.18;100.00;97799.41;15283435;19;20014;-56
2022/06/20 08:13:16;;;;;;;3.47;0.95;;;;;;;18.20;100.00;97822.91;15282866;19;20035;-57
2022/06/20 08:18:23;;;;;;;6.18;1.48;;;;;;;18.17;100.00;97830.47;15280083;19;20479;-56
2022/06/20 08:23:37;;;;;;;3.65;1.30;;;;;;;18.06;100.00;97842.09;15276484;19;20065;-57
2022/06/20 08:28:51;;;;;;;3.80;1.33;;;;;;;17.99;100.00;97850.34;15282556;19;20003;-56
2022/06/20 08:34:03;;;;;;;3.83;1.33;;;;;;;17.74;100.00;97847.59;15279990;19;20022;-59
2022/06/20 08:39:15;;;;;;;1.92;1.13;;;;;;;17.72;100.00;97846.97;15278510;19;20458;-57
2022/06/20 08:45:02;;;;;;;3.33;1.20;;;;;;;17.66;100.00;97864.22;15278503;19;20040;-55
2022/06/20 08:50:42;;;;;;;4.03;1.48;;;;;;;17.34;100.00;97870.50;15275236;19;20014;-56
2022/06/20 08:56:04;;;;;;;5.85;1.75;;;;;;;17.24;100.00;97846.47;15271687;19;20097;-54
2022/06/20 09:01:21;;;;;;;2.83;1.30;;;;;;;17.65;100.00;97806.16;15282015;19;20111;-54
2022/06/20 09:06:48;;;;;;;4.20;1.70;;;;;;;17.75;100.00;97815.75;15276682;19;20019;-58
2022/06/20 09:12:09;;;;;;;5.50;1.67;;;;;;;17.66;100.00;97843.25;15281404;19;20034;-56
2022/06/20 09:17:25;;;;;;;4.33;1.70;;;;;;;17.93;100.00;97848.50;15279044;19;20038;-52
2022/06/20 09:22:42;;;;;;;4.90;1.77;;;;;;;17.73;100.00;97853.28;15270612;19;20025;-56
2022/06/20 09:27:58;;;;;;;4.28;1.63;;;;;;;17.94;100.00;97842.00;15270615;19;21338;-56
2022/06/20 09:33:35;;;;;;;4.07;2.05;;;;;;;17.81;100.00;97826.59;15274901;19;20533;-57
2022/06/20 09:39:00;;;;;;;6.47;3.67;;;;;;;17.84;100.00;97819.88;15275135;19;20624;-56
2022/06/20 09:44:20;;;;;;;6.50;4.30;;;;;;;17.56;100.00;97808.34;15273688;19;20013;-53
2022/06/20 09:49:37;;;;;;;11.50;4.82;;;;;;;17.10;100.00;97855.78;15277467;19;20542;-51
2022/06/20 09:54:53;;;;;;;8.20;4.90;;;;;;;17.10;100.00;97861.22;15266565;19;20367;-57
2022/06/20 10:00:07;;;;;;;8.73;5.00;;;;;;;16.48;100.00;97902.44;15271592;19;20014;-56
2022/06/20 10:05:39;;;;;;;8.90;4.30;;;;;;;16.24;100.00;97903.91;15272089;19;20027;-54
2022/06/20 10:10:50;;;;;;;6.95;3.97;;;;;;;16.22;100.00;97915.00;15277721;19;20692;-55
2022/06/20 10:16:07;;;;;;;6.05;3.00;;;;;;;15.86;100.00;97921.69;15271640;19;20368;-53
2022/06/20 10:21:19;;;;;;;5.30;2.40;;;;;;;15.74;100.00;97953.19;15276912;19;20038;-53
2022/06/20 10:26:42;;;;;;;3.20;1.80;;;;;;;15.36;100.00;97957.28;15261711;19;20588;-56
2022/06/20 10:31:55;;;;;;;3.00;1.83;;;;;;;15.16;100.00;97989.75;15268116;19;20011;-53
2022/06/20 10:37:12;;;;;;;4.00;2.10;;;;;;;15.02;100.00;97984.25;15284086;19;20042;-58
2022/06/20 10:42:33;;;;;;;2.95;1.52;;;;;;;15.04;100.00;97987.59;15290039;19;20679;-54
2022/06/20 10:47:50;;;;;;;3.47;1.30;;;;;;;15.00;100.00;97997.19;15289337;19;20011;-52
2022/06/20 10:53:15;;;;;;;2.83;1.33;;;;;;;14.95;100.00;98007.81;15288048;19;20065;-53
2022/06/20 10:58:35;;;;;;;1.80;1.40;;;;;;;14.94;100.00;98041.38;15282650;19;20018;-53
2022/06/20 11:04:06;;;;;;;1.52;1.00;;;;;;;14.98;100.00;98041.81;15281271;19;20023;-52
2022/06/20 11:09:24;;;;;;;1.48;1.10;;;;;;;15.07;100.00;98063.19;15286113;19;20025;-57
2022/06/20 11:14:40;;;;;;;0.95;0.88;;;;;;;14.96;100.00;98077.28;15260409;19;20034;-59
2022/06/20 11:19:53;;;;;;;0.70;0.70;;;;;;;14.58;100.00;98094.69;15287576;19;20375;-53
2022/06/20 11:25:20;;;;;;;0.65;0.50;;;;;;;14.24;100.00;98106.25;15283133;19;20542;-53
2022/06/20 11:30:32;;;;;;;1.25;0.50;;;;;;;13.92;100.00;98108.41;15282420;19;20027;-58
2022/06/20 11:35:50;;;;;;;1.08;0.50;;;;;;;13.60;100.00;98134.88;15278037;19;20014;-56
2022/06/20 11:41:03;;;;;;;0.95;0.85;;;;;;;13.35;100.00;98156.75;15286791;19;20451;-57
2022/06/20 11:46:26;;;;;;;0.82;0.82;;;;;;;13.04;100.00;98160.47;15279683;19;20045;-52
2022/06/20 11:51:44;;;;;;;1.42;1.20;;;;;;;12.94;100.00;98171.53;15285856;19;20011;-53
2022/06/20 12:02:56;;;;;;;1.42;1.30;;;;;;;12.86;100.00;98202.22;15278454;19;19986;-54
2022/06/20 12:08:10;;;;;;;2.05;1.70;;;;;;;12.97;100.00;98202.81;15276534;19;20015;-51
2022/06/20 12:13:31;;;;;;;1.70;1.60;;;;;;;12.99;100.00;98203.47;15281729;19;20013;-52
2022/06/20 12:24:25;;;;;;;1.38;1.25;;;;;;;12.95;100.00;98206.53;15281152;19;20100;-55
2022/06/20 12:29:34;;;;;;;1.40;1.30;;;;;;;13.02;100.00;98227.41;15280953;19;20019;-52
2022/06/20 12:35:06;;;;;;;1.13;1.05;;;;;;;12.93;100.00;98235.59;15278190;19;20015;-54
2022/06/20 12:40:22;;;;;;;1.40;1.30;;;;;;;13.02;100.00;98241.78;15269583;19;20019;-58
2022/06/20 12:45:43;;;;;;;1.08;0.90;;;;;;;12.85;100.00;98245.63;15275580;19;20090;-52
2022/06/20 12:50:57;;;;;;;1.20;0.60;;;;;;;12.38;100.00;98258.28;15282003;19;20046;-56
2022/06/20 12:56:12;;;;;;;0.60;0.60;;;;;;;12.18;100.00;98266.78;15273052;19;20018;-54
2022/06/20 13:01:22;;;;;;;0.93;0.50;;;;;;;12.01;100.00;98291.16;15279588;19;20475;-54
2022/06/20 13:06:56;;;;;;;1.33;0.50;;;;;;;11.67;100.00;98297.63;15270587;19;20618;-58
2022/06/20 13:12:15;;;;;;;0.50;0.40;;;;;;;11.63;100.00;98292.75;15275812;19;20014;-53
2022/06/20 13:17:32;;;;;;;0.45;0.22;;;;;;;11.55;100.00;98280.13;15277871;19;20022;-58
2022/06/20 13:22:50;;;;;;;0.43;0.40;;;;;;;11.51;100.00;98273.38;15296716;19;20007;-52
2022/06/20 13:28:03;;;;;;;0.20;0.20;;;;;;;11.39;100.00;98260.22;15287888;19;20014;-56
2022/06/20 13:33:21;;;;;;;0.90;0.40;;;;;;;11.39;100.00;98248.63;15279331;19;20006;-57
2022/06/20 13:38:41;;;;;;;1.05;0.28;;;;;;;11.31;100.00;98257.56;15276275;19;20019;-57
2022/06/20 13:43:58;;;;;;;0.47;0.40;;;;;;;11.30;100.00;98261.25;15276084;19;20482;-54
2022/06/20 13:49:16;;;;;;;0.50;0.38;;;;;;;11.23;100.00;98254.88;15288960;19;20017;-50
2022/06/20 13:54:33;;;;;;;1.33;0.40;;;;;;;11.17;100.00;98220.47;15274829;19;20034;-52
2022/06/20 13:59:52;;;;;;;0.82;0.45;;;;;;;11.19;100.00;98234.66;15276019;19;20026;-54
2022/06/20 14:05:00;;;;;;;0.75;0.50;;;;;;;11.18;100.00;98209.50;15269959;19;20015;-53
2022/06/20 14:10:20;;;;;;;1.50;0.50;;;;;;;11.25;100.00;98231.25;15274725;19;20376;-52
2022/06/20 14:15:32;;;;;;;0.93;0.55;;;;;;;11.38;100.00;98255.84;15284116;19;20030;-52
2022/06/20 14:20:55;;;;;;;2.28;0.70;;;;;;;11.51;100.00;98247.25;15285941;19;20949;-55
2022/06/20 14:26:07;;;;;;;0.82;0.50;;;;;;;11.56;100.00;98238.63;15281887;19;20404;-55
2022/06/20 14:31:23;;;;;;;2.65;0.60;;;;;;;11.75;100.00;98247.34;15290892;19;20018;-49
2022/06/20 14:36:32;;;;;;;2.20;0.88;;;;;;;11.88;100.00;98263.84;15283078;19;20010;-53
2022/06/20 14:41:52;;;;;;;0.82;0.60;;;;;;;11.87;100.00;98271.13;15282830;19;20022;-50
2022/06/20 14:47:04;;;;;;;1.42;0.70;;;;;;;11.93;100.00;98233.63;15283538;19;20034;-54
2022/06/20 14:52:16;;;;;;;1.67;0.75;;;;;;;12.06;100.00;98227.69;15283687;19;20038;-50
2022/06/20 14:57:30;;;;;;;1.27;0.90;;;;;;;12.19;100.00;98249.56;15287146;19;20034;-53
2022/06/20 15:02:43;;;;;;;0.70;0.60;;;;;;;12.18;100.00;98248.75;15286884;19;20018;-55
2022/06/20 15:07:54;;;;;;;1.48;0.70;;;;;;;12.29;100.00;98249.38;15280281;19;20035;-52
2022/06/20 15:13:05;;;;;;;1.17;0.70;;;;;;;12.32;100.00;98213.91;15281339;19;20022;-51
2022/06/20 15:18:29;;;;;;;1.27;0.80;;;;;;;12.32;100.00;98206.63;15286013;19;20014;-50
2022/06/20 15:23:42;;;;;;;1.13;0.73;;;;;;;12.44;100.00;98200.81;15279467;19;20010;-54
2022/06/20 15:29:03;;;;;;;1.02;0.90;;;;;;;12.46;100.00;98215.00;15286978;19;20042;-51
2022/06/20 15:34:29;;;;;;;1.83;0.90;;;;;;;12.57;100.00;98232.66;15284071;19;20039;-50
2022/06/20 15:39:38;;;;;;;0.70;0.68;;;;;;;12.58;100.00;98210.84;15282133;19;20042;-51
2022/06/20 15:44:56;;;;;;;1.42;0.70;;;;;;;12.64;100.00;98241.72;15276568;19;20024;-59
2022/06/20 15:50:16;;;;;;;2.33;0.80;;;;;;;12.67;100.00;98225.16;15285896;19;20015;-56
2022/06/20 15:55:40;;;;;;;0.90;0.63;;;;;;;12.67;100.00;98210.78;15274599;19;20010;-53
2022/06/20 16:00:59;;;;;;;1.75;0.80;;;;;;;12.75;100.00;98199.94;15284979;19;20022;-49
2022/06/20 16:06:11;;;;;;;2.25;0.88;;;;;;;13.00;100.00;98205.13;15278737;19;20006;-49
2022/06/20 16:11:29;;;;;;;1.85;0.90;;;;;;;13.70;100.00;98182.28;15284036;19;20014;-50
2022/06/20 16:16:45;;;;;;;2.45;0.80;;;;;;;14.23;100.00;98169.59;15272589;19;20062;-54
2022/06/20 16:21:58;;;;;;;2.00;0.60;;;;;;;14.02;100.00;98152.28;15281255;19;20010;-54
2022/06/20 16:27:03;;;;;;;0.93;0.50;;;;;;;14.16;100.00;98154.13;15270895;19;20494;-55
2022/06/20 16:32:27;;;;;;;1.42;0.70;;;;;;;14.51;100.00;98161.56;15277103;19;20387;-52
2022/06/20 16:37:33;;;;;;;2.08;0.70;;;;;;;14.98;100.00;98151.19;15276321;19;20018;-55
2022/06/20 16:42:46;;;;;;;0.80;0.60;;;;;;;15.34;100.00;98149.34;15278789;19;20547;-52
2022/06/20 16:48:04;;;;;;;1.00;0.60;;;;;;;15.55;100.00;98140.28;15277802;19;20011;-59
2022/06/20 16:53:27;;;;;;;1.10;0.60;;;;;;;15.68;100.00;98150.38;15273652;19;20085;-55
2022/06/20 16:58:48;;;;;;;3.67;0.65;;;;;;;15.76;100.00;98147.47;15275537;19;20010;-55
2022/06/20 17:04:03;;;;;;;1.75;0.70;;;;;;;16.01;100.00;98147.84;15277605;19;20018;-60
2022/06/20 17:09:19;;;;;;;1.77;0.70;;;;;;;16.15;100.00;98146.00;15276182;19;20018;-57
2022/06/20 17:14:52;;;;;;;1.95;0.70;;;;;;;16.25;100.00;98142.91;15275594;19;20042;-49
2022/06/20 17:20:14;;;;;;;3.33;0.88;;;;;;;16.30;100.00;98134.13;15279013;19;20013;-50
2022/06/20 17:25:44;;;;;;;2.05;0.63;;;;;;;16.60;100.00;98139.19;15265973;19;20387;-57
2022/06/20 17:36:53;;;;;;;3.83;0.90;;;;;;;16.38;100.00;98133.09;15270442;19;19999;-51
2022/06/20 17:42:06;;;;;;;1.90;0.70;;;;;;;16.57;100.00;98132.28;15273520;19;20034;-53
2022/06/20 17:47:18;;;;;;;2.03;0.75;;;;;;;16.47;100.00;98127.25;15273315;19;20023;-50
2022/06/20 17:52:38;;;;;;;2.60;0.70;;;;;;;16.29;100.00;98116.16;15277013;19;20021;-54
2022/06/20 17:57:51;;;;;;;1.90;0.77;;;;;;;16.32;100.00;98126.63;15270208;19;20031;-54
2022/06/20 18:03:04;;;;;;;1.70;0.70;;;;;;;16.35;100.00;98133.50;15273035;19;20011;-62
2022/06/20 18:08:16;;;;;;;3.25;0.93;;;;;;;16.33;100.00;98129.13;15272011;19;20007;-50
2022/06/20 18:13:28;;;;;;;2.58;0.73;;;;;;;16.35;100.00;98128.06;15275666;19;20010;-52
2022/06/20 18:18:38;;;;;;;3.00;0.70;;;;;;;16.39;100.00;98130.16;15274728;19;20014;-51
2022/06/20 18:23:56;;;;;;;2.08;0.70;;;;;;;16.23;100.00;98136.00;15271737;19;20475;-52
2022/06/20 18:29:05;;;;;;;2.17;0.82;;;;;;;15.90;100.00;98132.13;15246669;19;20487;-53
2022/06/20 18:34:17;;;;;;;2.63;0.80;;;;;;;15.58;100.00;98139.91;15270137;19;20007;-53
2022/06/20 18:39:28;;;;;;;2.67;0.73;;;;;;;15.55;100.00;98130.25;15271058;19;20053;-52
2022/06/20 18:44:44;;;;;;;1.88;0.80;;;;;;;15.55;100.00;98132.97;15269986;19;20015;-53
2022/06/20 18:50:12;;;;;;;2.20;0.70;;;;;;;15.38;100.00;98137.88;15274815;19;20007;-53
2022/06/20 18:55:32;;;;;;;3.53;0.90;;;;;;;15.36;100.00;98136.41;15273093;19;20018;-56
2022/06/20 19:00:57;;;;;;;4.97;0.90;;;;;;;15.13;100.00;98131.22;15282553;19;20017;-53
2022/06/20 19:06:35;;;;;;;2.45;0.82;;;;;;;14.98;100.00;98134.06;15282344;19;20014;-53
2022/06/20 19:12:02;;;;;;;2.22;1.02;;;;;;;14.80;100.00;98129.97;15284276;19;20019;-52
2022/06/20 19:23:31;;;;;;;4.25;1.10;;;;;;;14.57;100.00;98135.56;15285700;19;20018;-55
2022/06/20 19:28:41;;;;;;;2.28;0.98;;;;;;;14.45;100.00;98140.66;15277974;19;20042;-51
2022/06/20 19:33:50;;;;;;;4.30;1.10;;;;;;;14.32;100.00;98152.19;15276618;19;20011;-55
2022/06/20 19:39:00;;;;;;;2.78;0.90;;;;;;;14.20;100.00;98167.28;15280280;19;20018;-54
2022/06/20 19:44:31;;;;;;;2.10;0.80;;;;;;;14.10;100.00;98168.41;15281627;19;20034;-52
2022/06/20 19:49:45;;;;;;;2.90;0.90;;;;;;;14.03;100.00;98168.34;15281519;19;20633;-51
2022/06/20 19:54:53;;;;;;;2.17;1.05;;;;;;;13.98;100.00;98175.34;15278390;19;20023;-52
2022/06/20 20:00:02;;;;;;;2.15;0.90;;;;;;;13.86;100.00;98185.84;15282753;19;20588;-53
2022/06/20 20:05:16;;;;;;;5.90;1.30;;;;;;;13.76;100.00;98186.13;15273742;19;20019;-51
2022/06/20 20:10:32;;;;;;;1.88;0.85;;;;;;;13.68;100.00;98191.63;15282105;19;20011;-51
2022/06/20 20:15:45;;;;;;;2.70;1.00;;;;;;;13.59;100.00;98190.03;15276545;19;20112;-53
2022/06/20 20:21:17;;;;;;;3.05;1.02;;;;;;;13.48;100.00;98199.47;15282190;19;20038;-56
2022/06/20 20:26:58;;;;;;;4.35;1.00;;;;;;;13.34;100.00;98209.22;15273792;19;20039;-53
2022/06/20 20:32:16;;;;;;;4.13;1.10;;;;;;;13.25;100.00;98206.56;15277724;19;20018;-53
2022/06/20 20:43:37;;;;;;;3.33;1.10;;;;;;;13.08;100.00;98215.88;15276144;19;20467;-57
2022/06/20 20:48:51;;;;;;;2.95;1.10;;;;;;;13.01;100.00;98214.91;15272805;19;20010;-56
2022/06/20 20:54:00;;;;;;;2.30;1.00;;;;;;;12.92;100.00;98216.88;15275623;19;20067;-57
2022/06/20 21:04:55;;;;;;;2.80;1.10;;;;;;;12.78;100.00;98230.16;15271093;19;19986;-52
2022/06/20 21:10:05;;;;;;;3.63;1.30;;;;;;;12.76;100.00;98228.63;15270409;19;20010;-54
2022/06/20 21:15:16;;;;;;;3.83;1.35;;;;;;;12.74;100.00;98228.81;15273391;19;20495;-55
2022/06/20 21:20:24;;;;;;;4.07;1.37;;;;;;;12.71;100.00;98244.56;15269387;19;20045;-56
2022/06/20 21:25:33;;;;;;;5.55;1.35;;;;;;;12.60;100.00;98241.25;15276580;19;20022;-52
2022/06/20 21:30:39;;;;;;;5.35;1.40;;;;;;;12.56;100.00;98255.31;15279141;19;20026;-56
2022/06/20 21:35:51;;;;;;;4.80;1.30;;;;;;;12.54;100.00;98251.94;15274464;19;20035;-55
2022/06/20 21:41:07;;;;;;;3.58;1.35;;;;;;;12.46;100.00;98253.66;15268237;19;20018;-50
2022/06/20 21:46:18;;;;;;;5.45;1.40;;;;;;;12.40;100.00;98262.47;15274251;19;20019;-53
2022/06/20 21:51:26;;;;;;;3.33;1.23;;;;;;;12.33;100.00;98256.09;15273121;19;20010;-53
2022/06/20 21:56:34;;;;;;;5.40;1.40;;;;;;;12.28;100.00;98259.34;15272018;19;20019;-50
2022/06/20 22:07:04;;;;;;;4.32;1.50;;;;;;;12.17;100.00;98265.97;15269068;19;20034;-52
2022/06/20 22:12:17;;;;;;;4.68;1.20;;;;;;;12.13;100.00;98266.50;15271607;19;20388;-54
2022/06/20 22:17:35;;;;;;;2.40;1.30;;;;;;;12.04;100.00;98267.53;15272154;19;20014;-54
2022/06/20 22:22:44;;;;;;;2.63;1.27;;;;;;;11.96;100.00;98266.50;15271857;19;20011;-52
2022/06/20 22:27:55;;;;;;;3.83;1.30;;;;;;;11.91;100.00;98277.00;15271103;19;20028;-50
2022/06/20 22:33:02;;;;;;;3.33;1.27;;;;;;;11.86;100.00;98277.53;15288730;19;20038;-50
2022/06/20 22:38:14;;;;;;;6.88;1.70;;;;;;;11.79;100.00;98270.28;15286439;19;20043;-55
2022/06/20 22:43:25;;;;;;;3.58;1.30;;;;;;;11.79;100.00;98271.13;15284712;19;20018;-51
2022/06/20 22:48:34;;;;;;;3.65;1.38;;;;;;;11.79;100.00;98278.38;15282601;19;20021;-50
2022/06/20 22:53:46;;;;;;;5.15;1.58;;;;;;;11.76;100.00;98281.41;15280387;19;20018;-52
2022/06/20 22:58:57;;;;;;;3.10;1.20;;;;;;;11.71;100.00;98282.75;15287568;19;20081;-52
2022/06/20 23:04:04;;;;;;;3.63;1.30;;;;;;;11.62;100.00;98282.97;15286435;19;20018;-50
2022/06/20 23:09:12;;;;;;;7.07;1.50;;;;;;;11.52;100.00;98294.81;15284732;19;20029;-50
2022/06/20 23:14:19;;;;;;;4.78;1.40;;;;;;;11.41;100.00;98301.38;15286390;19;20014;-50
2022/06/20 23:19:36;;;;;;;4.60;1.40;;;;;;;11.32;100.00;98306.94;15281496;19;20022;-50
2022/06/20 23:24:43;;;;;;;4.72;1.60;;;;;;;11.23;100.00;98298.84;15280687;19;20022;-50
2022/06/20 23:29:48;;;;;;;4.97;1.40;;;;;;;11.16;100.00;98302.38;15277150;19;20011;-50
2022/06/20 23:34:59;;;;;;;3.95;1.55;;;;;;;11.12;100.00;98303.72;15281017;19;20011;-55
2022/06/20 23:40:08;;;;;;;5.60;1.83;;;;;;;11.08;100.00;98305.91;15021435;19;5000975;-53
2022/06/20 23:45:16;;;;;;;3.70;1.60;;;;;;;11.07;100.00;98307.78;15280557;19;20021;-52
2022/06/20 23:50:24;;;;;;;4.40;1.55;;;;;;;11.00;100.00;98304.03;15272908;19;20019;-54
2022/06/20 23:55:32;;;;;;;4.47;1.88;;;;;;;10.97;100.00;98312.50;15281832;19;20031;-53
